Time;durP1;ratioP1;P1;durP2;ratioP2;P2;SDS_P1;SDS_P2;PMS_P1;PMS_P2;Temp;Humidity;BMP_temperature;BMP_pressure;BME280_temperature;BME280_humidity;BME280_pressure;Samples;Min_cycle;Max_cycle;Signal;HPM_P1;HPM_P2
2022/11/18 00:01:30;;;;;;;9.40;4.60;;;;;;;7.12;100.00;99364.34;5029730;28;20110;-87
2022/11/18 00:03:55;;;;;;;7.83;3.90;;;;;;;7.08;100.00;99350.50;5030642;28;20037;-87
2022/11/18 00:06:26;;;;;;;9.13;4.00;;;;;;;6.99;100.00;99341.06;5030393;28;20053;-87
2022/11/18 00:08:52;;;;;;;9.87;4.37;;;;;;;7.10;100.00;99359.19;5030926;28;20033;-87
2022/11/18 00:14:18;;;;;;;7.63;3.77;;;;;;;7.07;100.00;99357.75;5031115;28;20099;-87
2022/11/18 00:16:49;;;;;;;11.37;3.97;;;;;;;7.06;100.00;99366.88;5029675;28;20032;-86
2022/11/18 00:19:15;;;;;;;9.93;4.00;;;;;;;7.03;100.00;99371.88;5030644;28;20099;-86
2022/11/18 00:21:40;;;;;;;10.23;4.13;;;;;;;7.00;100.00;99369.66;5012695;28;20535;-87
2022/11/18 00:24:06;;;;;;;6.73;3.50;;;;;;;7.00;100.00;99377.72;5030018;28;20179;-86
2022/11/18 00:26:31;;;;;;;7.53;3.50;;;;;;;6.95;100.00;99378.41;5028882;28;20042;-87
2022/11/18 00:28:57;;;;;;;7.43;3.60;;;;;;;6.96;100.00;99379.22;5032269;28;20111;-87
2022/11/18 00:31:22;;;;;;;7.73;3.40;;;;;;;6.92;100.00;99384.22;5034051;28;20064;-87
2022/11/18 00:33:48;;;;;;;7.73;3.33;;;;;;;6.90;100.00;99383.63;5034477;28;20048;-87
2022/11/18 00:36:13;;;;;;;8.30;3.80;;;;;;;6.88;100.00;99389.25;5033562;28;20051;-87
2022/11/18 00:38:39;;;;;;;7.00;4.00;;;;;;;6.83;100.00;99388.28;5035094;28;20123;-87
2022/11/18 00:41:07;;;;;;;7.37;3.33;;;;;;;6.80;100.00;99391.41;5015897;28;20149;-87
2022/11/18 00:43:34;;;;;;;7.13;3.63;;;;;;;6.78;100.00;99394.31;5033823;28;20461;-86
2022/11/18 00:46:00;;;;;;;7.90;3.40;;;;;;;6.76;100.00;99385.66;5034101;28;20087;-86
2022/11/18 00:48:26;;;;;;;7.37;3.80;;;;;;;6.80;100.00;99403.00;5034125;28;20041;-87
2022/11/18 00:50:53;;;;;;;8.27;3.50;;;;;;;6.76;100.00;99402.63;5032697;28;20040;-87
2022/11/18 00:53:21;;;;;;;6.20;3.47;;;;;;;6.83;100.00;99412.50;5033789;28;20138;-87
2022/11/18 00:55:46;;;;;;;5.97;3.60;;;;;;;6.81;100.00;99401.94;5013935;28;20392;-87
2022/11/18 00:58:13;;;;;;;7.43;3.60;;;;;;;6.85;100.00;99413.09;5033932;28;20037;-87
2022/11/18 01:00:49;;;;;;;6.80;3.20;;;;;;;6.84;100.00;99412.28;5034395;28;20439;-87
2022/11/18 01:03:14;;;;;;;10.13;3.63;;;;;;;6.88;100.00;99421.56;5034909;28;20061;-87
2022/11/18 01:05:40;;;;;;;8.67;3.50;;;;;;;6.89;100.00;99417.81;5031860;28;21349;-86
2022/11/18 01:08:07;;;;;;;9.17;3.63;;;;;;;6.90;100.00;99421.34;5033071;28;20430;-87
2022/11/18 01:10:33;;;;;;;7.43;3.57;;;;;;;6.90;100.00;99430.22;5033135;28;20041;-87
2022/11/18 01:15:44;;;;;;;8.02;3.60;;;;;;;6.98;100.00;99437.19;5033610;28;20060;-87
2022/11/18 01:18:09;;;;;;;8.30;3.40;;;;;;;6.98;100.00;99433.69;5033738;28;20037;-88
2022/11/18 01:20:35;;;;;;;8.50;3.40;;;;;;;6.99;100.00;99438.84;5032685;28;20330;-87
2022/11/18 01:23:01;;;;;;;8.87;3.50;;;;;;;6.99;100.00;99432.63;5033625;28;20079;-88
2022/11/18 01:25:27;;;;;;;7.33;3.70;;;;;;;7.03;100.00;99441.91;5033761;28;20032;-87
2022/11/18 01:27:53;;;;;;;6.70;3.47;;;;;;;7.06;100.00;99444.19;5021684;28;20033;-88
2022/11/18 01:30:18;;;;;;;7.67;3.43;;;;;;;7.04;100.00;99446.25;5033525;28;20474;-87
2022/11/18 01:32:43;;;;;;;10.97;3.93;;;;;;;7.12;100.00;99461.31;5031581;28;20036;-87
2022/11/18 01:35:10;;;;;;;7.87;3.60;;;;;;;7.16;100.00;99459.81;5032755;28;20065;-86
2022/11/18 01:37:36;;;;;;;7.20;3.33;;;;;;;7.17;100.00;99456.09;5034254;28;20139;-87
2022/11/18 01:40:02;;;;;;;6.40;3.60;;;;;;;7.14;100.00;99457.34;5031656;28;20036;-87
2022/11/18 01:42:27;;;;;;;7.80;3.67;;;;;;;7.20;100.00;99467.22;5021364;28;20041;-86
2022/11/18 01:44:56;;;;;;;8.20;3.57;;;;;;;7.22;100.00;99470.53;5032215;28;20393;-87
2022/11/18 01:47:23;;;;;;;7.37;3.40;;;;;;;7.23;100.00;99472.16;5033564;28;20186;-87
2022/11/18 01:49:49;;;;;;;8.37;3.40;;;;;;;7.26;100.00;99481.66;5031405;28;20872;-87
2022/11/18 01:52:14;;;;;;;7.83;3.50;;;;;;;7.18;100.00;99457.72;5033118;28;20057;-86
2022/11/18 01:54:43;;;;;;;6.17;3.37;;;;;;;7.32;100.00;99486.16;5032985;28;20045;-87
2022/11/18 01:57:16;;;;;;;7.23;3.40;;;;;;;7.35;100.00;99476.81;5032535;28;20052;-87
2022/11/18 01:59:45;;;;;;;6.67;3.60;;;;;;;7.36;100.00;99481.16;5033015;28;20536;-87
2022/11/18 02:02:13;;;;;;;7.17;3.60;;;;;;;7.38;100.00;99490.63;5031686;28;20554;-87
2022/11/18 02:04:40;;;;;;;8.67;3.40;;;;;;;7.41;100.00;99486.69;5032479;28;20033;-87
2022/11/18 02:07:08;;;;;;;6.57;3.50;;;;;;;7.42;100.00;99491.88;5032987;28;20128;-87
2022/11/18 02:09:35;;;;;;;8.50;3.70;;;;;;;7.33;100.00;99471.66;5021013;28;20098;-86
2022/11/18 02:12:01;;;;;;;6.87;3.40;;;;;;;7.46;100.00;99481.44;5031500;28;20064;-88
2022/11/18 02:14:34;;;;;;;5.97;3.50;;;;;;;7.50;100.00;99492.59;5013030;28;20445;-88
2022/11/18 02:17:07;;;;;;;6.43;3.40;;;;;;;7.52;100.00;99494.03;5031705;28;20381;-86
2022/11/18 02:19:42;;;;;;;7.33;3.30;;;;;;;7.55;100.00;99495.47;5032105;28;20377;-87
2022/11/18 02:22:35;;;;;;;6.15;3.25;;;;;;;7.56;100.00;99497.94;5032503;28;20056;-86
2022/11/18 02:25:06;;;;;;;9.43;3.53;;;;;;;7.62;100.00;99503.47;5032475;28;20523;-87
2022/11/18 02:28:05;;;;;;;9.00;3.40;;;;;;;7.64;100.00;99506.75;5032403;28;20041;-87
2022/11/18 02:30:51;;;;;;;8.13;3.23;;;;;;;7.66;100.00;99512.75;5032202;28;20040;-86
2022/11/18 02:33:26;;;;;;;7.70;3.20;;;;;;;7.68;100.00;99508.75;5031613;28;20037;-86
2022/11/18 02:35:59;;;;;;;8.80;3.30;;;;;;;7.71;100.00;99519.09;5031299;28;20366;-87
2022/11/18 02:38:42;;;;;;;7.77;3.50;;;;;;;7.73;100.00;99516.19;5015251;28;20131;-87
2022/11/18 02:41:14;;;;;;;7.70;3.40;;;;;;;7.73;100.00;99514.31;5013011;28;20044;-87
2022/11/18 02:43:48;;;;;;;9.90;3.10;;;;;;;7.75;100.00;99516.78;5032321;28;20041;-86
2022/11/18 02:46:20;;;;;;;6.20;3.17;;;;;;;7.77;100.00;99520.06;5030879;28;20041;-86
2022/11/18 02:48:50;;;;;;;6.13;2.97;;;;;;;7.77;100.00;99523.59;5032495;28;20131;-87
2022/11/18 02:51:22;;;;;;;5.73;3.17;;;;;;;7.80;100.00;99530.41;5031808;28;20037;-86
2022/11/18 02:53:49;;;;;;;8.03;3.33;;;;;;;7.81;100.00;99532.06;5013368;28;20051;-86
2022/11/18 02:56:17;;;;;;;7.87;3.20;;;;;;;7.82;100.00;99522.94;5031581;28;20036;-85
2022/11/18 02:58:42;;;;;;;7.47;3.50;;;;;;;7.84;100.00;99525.38;5032633;28;20094;-87
2022/11/18 03:01:17;;;;;;;6.93;3.40;;;;;;;7.87;100.00;99531.13;5013662;28;20090;-87
2022/11/18 03:03:43;;;;;;;7.63;3.10;;;;;;;7.85;100.00;99527.03;5031232;28;20036;-87
2022/11/18 03:06:32;;;;;;;9.03;3.30;;;;;;;7.89;100.00;99526.34;5034330;28;20053;-87
2022/11/18 03:09:03;;;;;;;9.07;3.50;;;;;;;7.90;100.00;99530.72;5049607;28;20039;-88
2022/11/18 03:11:35;;;;;;;6.37;3.10;;;;;;;7.91;100.00;99532.34;5051040;28;20044;-88
2022/11/18 03:14:08;;;;;;;5.13;3.20;;;;;;;7.94;100.00;99540.00;5051491;28;20046;-88
2022/11/18 03:16:50;;;;;;;8.13;3.77;;;;;;;7.94;100.00;99540.00;5049536;28;20086;-87
2022/11/18 03:19:22;;;;;;;9.47;3.23;;;;;;;8.02;100.00;99541.53;5050566;28;20477;-87
2022/11/18 03:22:01;;;;;;;6.90;3.10;;;;;;;8.01;100.00;99541.75;5050624;28;20560;-88
2022/11/18 03:24:32;;;;;;;8.97;3.40;;;;;;;8.02;100.00;99552.31;5051550;28;20480;-88
2022/11/18 03:27:16;;;;;;;9.27;3.63;;;;;;;8.04;100.00;99552.13;5049585;28;20033;-87
2022/11/18 03:29:51;;;;;;;9.20;3.50;;;;;;;8.09;100.00;99560.34;5066766;28;20025;-87
2022/11/18 03:32:29;;;;;;;7.83;3.53;;;;;;;8.11;100.00;99563.66;5048700;28;20036;-87
2022/11/18 03:35:00;;;;;;;10.77;3.27;;;;;;;8.09;100.00;99563.88;5051032;28;20182;-86
2022/11/18 03:37:27;;;;;;;7.87;3.47;;;;;;;8.14;100.00;99565.88;5050197;28;20139;-86
2022/11/18 03:39:57;;;;;;;9.70;3.43;;;;;;;8.12;100.00;99570.69;5048968;28;20028;-87
2022/11/18 03:42:29;;;;;;;8.70;3.40;;;;;;;8.12;100.00;99562.59;5049731;28;20177;-88
2022/11/18 03:45:01;;;;;;;8.03;3.43;;;;;;;8.15;100.00;99569.41;5050610;28;20035;-87
2022/11/18 03:47:45;;;;;;;7.17;3.20;;;;;;;8.17;100.00;99583.50;5050157;28;20449;-87
2022/11/18 03:50:19;;;;;;;10.97;3.60;;;;;;;8.18;100.00;99585.16;5049991;28;20098;-87
2022/11/18 03:52:47;;;;;;;9.33;3.70;;;;;;;8.17;100.00;99586.19;5049722;28;20048;-87
2022/11/18 03:55:45;;;;;;;8.73;3.40;;;;;;;8.19;100.00;99586.81;5049891;28;20039;-87
2022/11/18 03:58:32;;;;;;;7.43;3.50;;;;;;;8.10;100.00;99579.03;5037855;28;20480;-87
2022/11/18 04:01:07;;;;;;;8.73;3.67;;;;;;;8.12;100.00;99592.28;5050670;28;20021;-87
2022/11/18 04:03:33;;;;;;;7.87;3.77;;;;;;;8.08;100.00;99591.09;5047367;28;20071;-86
2022/11/18 04:06:12;;;;;;;10.70;3.80;;;;;;;8.09;100.00;99601.66;5030990;28;20159;-86
2022/11/18 04:08:41;;;;;;;11.57;4.27;;;;;;;8.07;100.00;99602.91;5050465;28;20184;-86
2022/11/18 04:14:17;;;;;;;12.30;4.20;;;;;;;8.07;100.00;99605.63;5051054;28;20380;-87
2022/11/18 04:16:43;;;;;;;9.70;3.90;;;;;;;8.10;100.00;99615.94;5050603;28;20119;-85
2022/11/18 04:19:09;;;;;;;8.97;4.00;;;;;;;8.07;100.00;99619.09;5050516;28;21386;-86
2022/11/18 04:21:35;;;;;;;8.23;3.63;;;;;;;8.15;100.00;99618.78;5055846;28;20052;-86
2022/11/18 04:24:01;;;;;;;6.70;3.37;;;;;;;8.12;100.00;99624.66;5055801;28;20863;-86
2022/11/18 04:26:26;;;;;;;8.33;3.63;;;;;;;8.10;100.00;99626.75;5049500;28;20032;-85
2022/11/18 04:28:51;;;;;;;8.57;3.77;;;;;;;8.16;100.00;99630.41;5051008;28;20033;-85
2022/11/18 04:31:17;;;;;;;7.17;3.40;;;;;;;8.06;100.00;99629.03;5049817;28;20049;-86
2022/11/18 04:33:42;;;;;;;8.40;3.63;;;;;;;8.06;100.00;99633.63;5049741;28;20959;-85
2022/11/18 04:36:08;;;;;;;9.20;4.07;;;;;;;7.95;100.00;99619.03;5050002;28;20460;-86
2022/11/18 04:38:33;;;;;;;9.40;3.90;;;;;;;7.94;100.00;99620.06;5051393;28;20393;-86
2022/11/18 04:40:58;;;;;;;7.77;3.50;;;;;;;8.00;100.00;99634.53;5048417;28;20506;-85
2022/11/18 04:43:24;;;;;;;8.37;4.13;;;;;;;7.99;100.00;99638.28;5050607;28;20036;-86
2022/11/18 04:45:49;;;;;;;9.60;4.10;;;;;;;7.88;100.00;99634.47;5050733;28;20383;-86
2022/11/18 04:48:15;;;;;;;9.83;4.30;;;;;;;7.98;100.00;99642.03;5049354;28;20047;-87
2022/11/18 04:50:40;;;;;;;7.30;4.00;;;;;;;7.94;100.00;99644.34;5049952;28;20218;-87
2022/11/18 04:53:05;;;;;;;7.50;4.07;;;;;;;7.87;100.00;99652.50;5054686;28;20033;-86
2022/11/18 04:55:31;;;;;;;7.93;4.10;;;;;;;7.89;100.00;99655.00;5049169;28;20472;-87
2022/11/18 04:57:56;;;;;;;10.90;4.70;;;;;;;7.84;100.00;99649.44;5050123;28;20552;-87
2022/11/18 05:00:21;;;;;;;11.50;4.70;;;;;;;7.84;100.00;99662.91;5049872;28;20538;-87
2022/11/18 05:02:47;;;;;;;9.00;4.30;;;;;;;7.83;100.00;99661.25;5049967;28;20098;-86
2022/11/18 05:05:13;;;;;;;9.10;4.50;;;;;;;7.80;100.00;99670.63;5048798;28;20163;-87
2022/11/18 05:07:38;;;;;;;9.67;4.17;;;;;;;7.84;100.00;99671.81;5048649;28;20068;-86
2022/11/18 05:10:04;;;;;;;9.67;4.50;;;;;;;7.75;100.00;99671.31;5049076;28;20094;-86
2022/11/18 05:12:48;;;;;;;10.73;4.73;;;;;;;7.78;100.00;99683.53;5048575;28;20119;-86
2022/11/18 05:15:14;;;;;;;9.10;4.50;;;;;;;7.72;100.00;99679.81;5050915;28;20041;-87
2022/11/18 05:17:40;;;;;;;9.03;4.30;;;;;;;7.75;100.00;99681.25;5054309;28;20373;-85
2022/11/18 05:20:06;;;;;;;10.03;4.80;;;;;;;7.68;100.00;99677.78;5053021;28;20064;-86
2022/11/18 05:22:31;;;;;;;11.60;4.70;;;;;;;7.69;100.00;99691.03;5052742;28;20075;-87
2022/11/18 05:24:57;;;;;;;9.07;4.50;;;;;;;7.66;100.00;99696.06;5053135;28;20116;-86
2022/11/18 05:27:22;;;;;;;11.13;4.87;;;;;;;7.62;100.00;99692.19;5053131;28;20109;-87
2022/11/18 05:29:47;;;;;;;11.17;5.40;;;;;;;7.56;100.00;99691.16;5053845;28;20260;-86
2022/11/18 05:32:13;;;;;;;9.10;4.73;;;;;;;7.54;100.00;99699.47;5053060;28;21327;-87
2022/11/18 05:34:40;;;;;;;12.13;5.00;;;;;;;7.40;100.00;99685.28;5052972;28;20037;-87
2022/11/18 05:37:06;;;;;;;8.77;4.70;;;;;;;7.47;100.00;99700.59;5052555;28;20103;-87
2022/11/18 05:39:32;;;;;;;9.50;4.60;;;;;;;7.37;100.00;99704.59;5053371;28;20037;-87
2022/11/18 05:44:43;;;;;;;8.18;4.63;;;;;;;7.38;100.00;99717.00;5053117;28;20055;-87
2022/11/18 05:47:08;;;;;;;10.43;4.47;;;;;;;7.33;100.00;99713.31;5058367;28;20461;-87
2022/11/18 05:49:34;;;;;;;11.37;4.60;;;;;;;7.26;100.00;99713.34;5053115;28;20044;-87
2022/11/18 05:51:59;;;;;;;11.90;5.03;;;;;;;7.25;100.00;99723.31;5050066;28;20037;-87
2022/11/18 05:54:25;;;;;;;10.73;4.90;;;;;;;7.22;100.00;99722.91;5050784;28;20478;-87
2022/11/18 05:56:50;;;;;;;11.17;4.90;;;;;;;7.22;100.00;99722.91;5052941;28;20037;-87
2022/11/18 05:59:16;;;;;;;13.03;5.03;;;;;;;7.17;100.00;99726.28;5053424;28;20380;-87
2022/11/18 06:01:53;;;;;;;10.63;4.90;;;;;;;7.18;100.00;99732.47;5053526;28;20489;-87
2022/11/18 06:04:27;;;;;;;10.70;5.40;;;;;;;7.17;100.00;99728.97;5053561;28;20364;-87
2022/11/18 06:06:57;;;;;;;10.33;5.10;;;;;;;7.14;100.00;99739.34;5041331;28;20049;-86
2022/11/18 06:09:26;;;;;;;10.07;4.70;;;;;;;7.09;100.00;99734.63;5015192;28;20022;-87
2022/11/18 06:11:55;;;;;;;8.57;5.00;;;;;;;6.99;100.00;99728.84;5015616;28;20099;-87
2022/11/18 06:14:41;;;;;;;9.60;5.43;;;;;;;7.02;100.00;99744.63;5032854;28;21353;-87
2022/11/18 06:17:13;;;;;;;10.67;5.17;;;;;;;6.98;100.00;99744.22;5032761;28;20062;-87
2022/11/18 06:19:38;;;;;;;10.07;4.90;;;;;;;7.00;100.00;99758.25;5033314;28;20768;-86
2022/11/18 06:22:04;;;;;;;13.13;5.03;;;;;;;6.95;100.00;99755.41;5032084;28;20049;-85
2022/11/18 06:24:30;;;;;;;10.83;5.20;;;;;;;6.88;100.00;99759.97;5032136;28;20045;-86
2022/11/18 06:26:57;;;;;;;11.17;5.43;;;;;;;6.86;100.00;99762.09;5021085;28;20052;-85
2022/11/18 06:29:23;;;;;;;9.30;5.17;;;;;;;6.85;100.00;99771.19;5032395;28;20038;-86
2022/11/18 06:31:48;;;;;;;9.23;5.27;;;;;;;6.85;100.00;99769.31;5012382;28;20594;-86
2022/11/18 06:34:13;;;;;;;10.50;5.03;;;;;;;6.80;100.00;99769.16;5013779;28;20037;-87
2022/11/18 06:36:39;;;;;;;12.37;5.30;;;;;;;6.77;100.00;99774.94;5031748;28;20115;-87
2022/11/18 06:39:05;;;;;;;10.47;4.97;;;;;;;6.74;100.00;99786.13;5029863;28;20045;-87
2022/11/18 06:41:31;;;;;;;12.23;5.53;;;;;;;6.72;100.00;99774.78;5013747;28;20037;-86
2022/11/18 06:43:57;;;;;;;14.47;5.87;;;;;;;6.69;100.00;99780.56;5013285;28;20111;-86
2022/11/18 06:49:06;;;;;;;11.38;6.10;;;;;;;6.65;100.00;99788.25;5032636;28;20127;-85
2022/11/18 06:51:31;;;;;;;10.93;5.60;;;;;;;6.61;100.00;99803.19;5031301;28;20041;-86
2022/11/18 06:53:57;;;;;;;12.40;5.90;;;;;;;6.59;100.00;99802.53;5030796;28;20034;-86
2022/11/18 06:56:23;;;;;;;11.37;5.63;;;;;;;6.57;100.00;99813.53;5031523;28;20037;-86
2022/11/18 06:58:53;;;;;;;12.87;6.30;;;;;;;6.53;100.00;99800.72;5030077;28;20033;-86
2022/11/18 07:01:21;;;;;;;12.77;5.63;;;;;;;6.54;100.00;99813.13;5012838;28;20044;-86
2022/11/18 07:03:47;;;;;;;12.93;6.27;;;;;;;6.52;100.00;99818.72;5031154;28;20033;-86
2022/11/18 07:06:17;;;;;;;12.23;6.00;;;;;;;6.54;100.00;99832.78;5035368;28;20102;-86
2022/11/18 07:08:43;;;;;;;13.23;6.30;;;;;;;6.57;100.00;99829.69;5030282;28;20038;-86
2022/11/18 07:11:11;;;;;;;11.20;6.07;;;;;;;6.57;100.00;99829.69;5036908;28;20445;-86
2022/11/18 07:13:37;;;;;;;11.73;6.03;;;;;;;6.63;100.00;99832.56;5035994;28;20029;-86
2022/11/18 07:16:03;;;;;;;13.97;6.37;;;;;;;6.68;100.00;99840.84;5033998;28;20099;-86
2022/11/18 07:18:34;;;;;;;12.63;6.40;;;;;;;6.69;100.00;99834.41;5018157;28;20060;-86
2022/11/18 07:21:20;;;;;;;15.53;6.20;;;;;;;6.70;100.00;99844.13;5012776;28;20351;-86
2022/11/18 07:23:46;;;;;;;13.00;6.10;;;;;;;6.72;100.00;99844.78;5031023;28;20041;-87
2022/11/18 07:26:12;;;;;;;11.10;6.37;;;;;;;6.70;100.00;99836.06;5031098;28;20074;-87
2022/11/18 07:28:37;;;;;;;11.70;5.77;;;;;;;6.72;100.00;99853.66;5030809;28;20037;-86
2022/11/18 07:31:08;;;;;;;13.03;6.17;;;;;;;6.73;100.00;99855.31;5030920;28;20045;-86
2022/11/18 07:33:34;;;;;;;11.00;6.13;;;;;;;6.81;100.00;99861.50;5030612;28;20157;-86
2022/11/18 07:36:05;;;;;;;11.63;5.80;;;;;;;6.80;100.00;99866.06;5030009;28;20120;-86
2022/11/18 07:38:30;;;;;;;12.13;5.40;;;;;;;6.88;100.00;99871.22;5018990;28;20033;-86
2022/11/18 07:41:08;;;;;;;10.63;5.63;;;;;;;6.83;100.00;99873.72;5030903;28;20381;-87
2022/11/18 07:43:34;;;;;;;9.87;5.40;;;;;;;6.86;100.00;99876.00;5031259;28;20079;-87
2022/11/18 07:46:15;;;;;;;9.20;5.20;;;;;;;6.92;100.00;99880.53;5030089;28;20040;-87
2022/11/18 07:48:42;;;;;;;9.93;5.50;;;;;;;7.03;100.00;99878.22;5030432;28;20333;-87
2022/11/18 07:51:08;;;;;;;10.83;5.10;;;;;;;6.91;100.00;99860.03;5026942;28;20039;-86
2022/11/18 07:53:34;;;;;;;14.80;5.40;;;;;;;7.01;100.00;99872.22;5006306;28;20070;-86
2022/11/18 07:56:00;;;;;;;8.60;5.60;;;;;;;7.02;100.00;99887.34;5025905;28;20103;-86
2022/11/18 07:58:26;;;;;;;9.20;5.27;;;;;;;7.04;100.00;99904.13;5025796;28;20115;-86
2022/11/18 08:00:51;;;;;;;8.53;4.83;;;;;;;6.95;100.00;99883.84;5026075;28;20175;-87
2022/11/18 08:03:17;;;;;;;12.37;5.40;;;;;;;7.00;100.00;99900.19;5026574;28;20056;-87
2022/11/18 08:05:42;;;;;;;12.57;5.07;;;;;;;7.01;100.00;99893.78;5012254;28;20033;-86
2022/11/18 08:08:09;;;;;;;9.07;4.73;;;;;;;7.13;100.00;99908.25;5029102;28;20060;-86
2022/11/18 08:10:35;;;;;;;9.97;5.47;;;;;;;7.21;100.00;99916.09;5026309;28;20058;-86
2022/11/18 08:13:00;;;;;;;9.13;4.50;;;;;;;7.30;100.00;99899.69;4973661;28;20037;-86
2022/11/18 08:15:25;;;;;;;12.63;4.90;;;;;;;7.48;100.00;99916.00;5006763;28;20543;-86
2022/11/18 08:17:51;;;;;;;9.37;4.40;;;;;;;7.54;100.00;99911.59;5026681;28;20603;-87
2022/11/18 08:20:16;;;;;;;9.63;4.30;;;;;;;7.66;100.00;99919.84;5027054;28;20045;-87
2022/11/18 08:22:42;;;;;;;9.43;4.50;;;;;;;7.76;100.00;99915.66;5025517;28;20646;-87
2022/11/18 08:25:08;;;;;;;10.43;4.60;;;;;;;7.50;100.00;99902.28;4986400;22;20076;-86
2022/11/18 08:27:33;;;;;;;7.13;3.90;;;;;;;7.59;100.00;99912.59;5003854;22;20062;-86
2022/11/18 08:29:58;;;;;;;8.83;4.33;;;;;;;7.47;100.00;99933.19;5012958;28;20060;-86
2022/11/18 08:32:24;;;;;;;10.23;4.50;;;;;;;7.44;100.00;99934.44;5011795;28;20043;-87
2022/11/18 08:34:50;;;;;;;11.10;5.10;;;;;;;7.47;100.00;99938.59;5013574;28;20060;-86
2022/11/18 08:37:16;;;;;;;8.50;5.03;;;;;;;7.41;100.00;99939.44;5013063;28;20809;-86
2022/11/18 08:39:41;;;;;;;9.37;5.27;;;;;;;7.37;100.00;99947.13;5011459;28;20116;-86
2022/11/18 08:42:08;;;;;;;15.17;5.80;;;;;;;7.37;100.00;99946.28;5013444;28;20469;-86
2022/11/18 08:44:34;;;;;;;11.47;5.90;;;;;;;7.42;100.00;99951.88;5012553;28;20103;-86
2022/11/18 08:46:59;;;;;;;12.73;5.73;;;;;;;7.51;100.00;99947.91;5013358;28;20041;-87
2022/11/18 08:49:25;;;;;;;11.77;6.27;;;;;;;7.74;100.00;99947.38;4995321;28;20557;-87
2022/11/18 08:51:50;;;;;;;13.00;6.00;;;;;;;7.86;100.00;99935.91;5017878;28;20045;-87
2022/11/18 08:54:15;;;;;;;13.53;6.20;;;;;;;7.98;100.00;99941.44;5017225;28;20068;-87
2022/11/18 08:56:41;;;;;;;10.53;4.77;;;;;;;8.08;100.00;99936.41;4999282;28;20037;-87
2022/11/18 08:59:07;;;;;;;10.07;4.40;;;;;;;8.17;100.00;99940.47;5017157;28;20052;-87
2022/11/18 09:01:35;;;;;;;11.67;5.30;;;;;;;8.41;100.00;99952.34;5011748;28;20099;-86
2022/11/18 09:04:00;;;;;;;11.07;5.60;;;;;;;8.60;100.00;99955.97;5017260;28;20029;-87
2022/11/18 09:06:26;;;;;;;10.87;4.83;;;;;;;8.86;100.00;99945.97;5024263;28;20044;-87
2022/11/18 09:08:52;;;;;;;11.67;5.10;;;;;;;8.97;100.00;99954.41;5022834;28;20037;-87
2022/11/18 09:11:19;;;;;;;12.50;5.17;;;;;;;8.90;100.00;99962.56;5015506;28;20037;-87
2022/11/18 09:13:45;;;;;;;12.47;5.70;;;;;;;8.66;100.00;99966.94;5009443;28;20505;-87
2022/11/18 09:16:11;;;;;;;10.97;5.50;;;;;;;8.65;100.00;99973.38;5023214;28;20037;-87
2022/11/18 09:18:37;;;;;;;13.63;6.27;;;;;;;8.44;100.00;99972.69;5024112;28;20124;-87
2022/11/18 09:21:07;;;;;;;12.20;6.03;;;;;;;8.31;100.00;99968.22;5023645;28;20063;-87
2022/11/18 09:23:35;;;;;;;11.33;5.20;;;;;;;8.26;100.00;99971.56;5023746;28;20482;-87
2022/11/18 09:26:06;;;;;;;16.17;6.50;;;;;;;8.17;100.00;99972.03;5023437;28;20393;-87
2022/11/18 09:28:32;;;;;;;15.10;6.43;;;;;;;8.18;100.00;99963.72;5022612;28;20512;-87
2022/11/18 09:30:57;;;;;;;12.43;6.60;;;;;;;8.30;100.00;99973.84;5024479;28;20042;-87
2022/11/18 09:33:23;;;;;;;12.47;6.73;;;;;;;8.46;100.00;99986.81;5024075;28;20033;-87
2022/11/18 09:35:48;;;;;;;13.83;6.20;;;;;;;8.67;100.00;99988.31;5023812;28;20041;-87
2022/11/18 09:38:14;;;;;;;10.30;5.40;;;;;;;8.82;100.00;99985.28;5023588;28;20060;-87
2022/11/18 09:40:43;;;;;;;13.83;6.53;;;;;;;9.27;100.00;100000.44;5022485;28;20521;-87
2022/11/18 09:43:46;;;;;;;10.93;5.43;;;;;;;9.67;100.00;100001.88;5022206;28;20068;-88
2022/11/18 09:46:36;;;;;;;12.13;4.60;;;;;;;10.01;100.00;100002.28;5020524;28;20064;-88
2022/11/18 09:49:13;;;;;;;8.73;4.67;;;;;;;9.77;97.59;100004.88;5023464;28;20464;-88
2022/11/18 09:51:50;;;;;;;9.63;5.07;;;;;;;10.07;97.61;100018.41;5020492;28;20030;-88
2022/11/18 09:54:22;;;;;;;10.53;5.07;;;;;;;9.82;97.22;100010.44;5023849;28;20030;-86
2022/11/18 09:56:50;;;;;;;11.30;5.43;;;;;;;10.19;98.15;100021.19;5003566;28;20132;-87
2022/11/18 09:59:19;;;;;;;9.70;4.70;;;;;;;10.37;96.20;100027.63;5022935;28;20144;-88
2022/11/18 10:01:45;;;;;;;9.83;4.53;;;;;;;10.34;95.17;100034.31;5029903;28;20037;-87
2022/11/18 10:04:16;;;;;;;8.67;4.30;;;;;;;10.40;95.07;100016.34;5024055;28;20769;-88
2022/11/18 10:06:42;;;;;;;9.77;4.40;;;;;;;10.31;92.72;100013.94;5023102;28;20041;-87
2022/11/18 10:09:33;;;;;;;11.83;5.17;;;;;;;10.84;94.88;100040.47;5004298;28;20041;-88
2022/11/18 10:12:19;;;;;;;8.43;3.70;;;;;;;10.83;92.96;100034.22;5010368;28;20473;-88
2022/11/18 10:15:15;;;;;;;10.13;3.50;;;;;;;11.02;90.33;100044.97;5020517;28;20044;-88
2022/11/18 10:18:09;;;;;;;7.50;3.50;;;;;;;10.50;92.15;100046.41;5022403;28;20021;-87
2022/11/18 10:20:51;;;;;;;6.90;3.23;;;;;;;10.31;90.86;100046.41;5023521;28;20064;-87
2022/11/18 10:23:25;;;;;;;9.13;3.77;;;;;;;10.09;93.12;100045.25;5022426;28;20040;-87
2022/11/18 10:25:52;;;;;;;8.98;3.97;;;;;;;10.07;93.42;100047.38;5023279;28;21341;-87
2022/11/18 10:28:24;;;;;;;8.90;3.57;;;;;;;10.21;94.93;100050.72;5022657;28;20099;-88
2022/11/18 10:30:51;;;;;;;9.70;4.57;;;;;;;10.07;94.98;100055.50;5022815;28;20594;-87
2022/11/18 10:33:28;;;;;;;13.63;4.93;;;;;;;10.10;96.36;100049.63;5005503;28;20041;-88
2022/11/18 10:36:11;;;;;;;8.23;3.77;;;;;;;10.24;94.72;100064.66;5023182;28;21472;-88
2022/11/18 10:38:36;;;;;;;10.40;4.10;;;;;;;10.00;94.44;100065.59;5022654;28;20365;-87
2022/11/18 10:41:07;;;;;;;8.47;3.60;;;;;;;9.93;94.91;100060.25;5022972;28;20057;-87
2022/11/18 10:43:54;;;;;;;10.43;3.57;;;;;;;10.10;96.06;100066.72;5021111;28;20091;-87
2022/11/18 10:46:33;;;;;;;8.00;3.50;;;;;;;9.95;95.62;100061.69;5022623;28;20041;-87
2022/11/18 10:49:08;;;;;;;8.53;3.80;;;;;;;9.94;96.63;100051.91;5022030;28;20038;-87
2022/11/18 10:51:34;;;;;;;10.00;4.50;;;;;;;10.09;95.74;100064.19;5025025;28;20029;-87
2022/11/18 10:54:07;;;;;;;9.93;3.63;;;;;;;10.14;95.07;100075.19;5017624;28;20054;-86
2022/11/18 10:56:43;;;;;;;9.07;3.60;;;;;;;10.06;95.29;100065.50;5031487;28;20116;-87
2022/11/18 10:59:20;;;;;;;9.93;3.70;;;;;;;10.03;95.86;100073.25;5033434;28;20091;-88
2022/11/18 11:02:10;;;;;;;7.40;3.37;;;;;;;10.00;95.81;100071.00;5004147;28;21769;-87
2022/11/18 11:04:38;;;;;;;8.37;3.33;;;;;;;9.83;95.88;100074.28;5022347;28;20032;-87
2022/11/18 11:07:15;;;;;;;11.03;3.17;;;;;;;9.87;96.87;100074.69;5022439;28;20042;-87
2022/11/18 11:09:40;;;;;;;7.80;2.93;;;;;;;9.80;97.09;100069.34;5023055;28;20493;-86
2022/11/18 11:12:13;;;;;;;8.17;3.30;;;;;;;9.84;97.12;100086.78;5021711;28;20083;-87
2022/11/18 11:14:56;;;;;;;9.87;2.93;;;;;;;9.88;95.15;100074.44;5021521;28;20036;-87
2022/11/18 11:17:28;;;;;;;10.40;3.33;;;;;;;9.69;95.80;100075.50;5028946;28;20033;-87
2022/11/18 11:20:03;;;;;;;11.27;3.53;;;;;;;9.75;96.33;100085.41;5026164;28;20030;-87
2022/11/18 11:22:28;;;;;;;10.27;3.30;;;;;;;9.63;97.14;100083.47;5021790;28;20045;-86
2022/11/18 11:24:55;;;;;;;9.93;3.60;;;;;;;9.60;97.69;100083.94;5002882;28;20610;-87
2022/11/18 11:27:44;;;;;;;9.77;3.40;;;;;;;9.67;97.74;100089.28;5021306;28;20061;-87
2022/11/18 11:30:18;;;;;;;9.87;3.30;;;;;;;9.61;97.04;100093.69;5019073;28;20037;-87
2022/11/18 11:33:08;;;;;;;9.70;3.20;;;;;;;9.56;98.43;100103.50;5005796;28;20130;-86
2022/11/18 11:35:50;;;;;;;9.70;3.63;;;;;;;9.59;98.06;100109.31;5021503;28;20470;-87
2022/11/18 11:38:24;;;;;;;11.47;3.50;;;;;;;9.54;98.79;100103.75;5003811;28;20666;-87
2022/11/18 11:41:09;;;;;;;7.97;3.50;;;;;;;9.52;98.07;100108.56;5020593;28;20095;-86
2022/11/18 11:43:41;;;;;;;10.45;3.50;;;;;;;9.54;99.09;100100.22;5033001;28;20032;-87
2022/11/18 11:46:25;;;;;;;7.43;3.43;;;;;;;9.58;99.58;100102.25;5044617;28;20492;-90
2022/11/18 11:49:09;;;;;;;9.23;3.95;;;;;;;9.44;97.89;100089.91;5020232;28;20053;-88
2022/11/18 11:51:53;;;;;;;8.73;3.23;;;;;;;9.60;98.77;100099.31;5018809;28;20038;-88
2022/11/18 11:54:51;;;;;;;9.75;4.10;;;;;;;9.67;99.71;100101.94;5020289;28;20448;-87
2022/11/18 11:57:37;;;;;;;8.10;3.80;;;;;;;9.69;98.86;100107.97;5020514;28;20087;-88